sensor_id;sensor_type;location;lat;lon;timestamp;P1;durP1;ratioP1;P2;durP2;ratioP2
4921;SDS011;16625;53.624;10.106;2023-02-01T00:02:03;14.40;;;4.37;;
4921;SDS011;16625;53.624;10.106;2023-02-01T00:04:30;24.30;;;4.57;;
4921;SDS011;16625;53.624;10.106;2023-02-01T00:06:57;16.87;;;5.80;;
4921;SDS011;16625;53.624;10.106;2023-02-01T00:09:25;27.53;;;5.37;;
4921;SDS011;16625;53.624;10.106;2023-02-01T00:11:52;17.43;;;4.80;;
4921;SDS011;16625;53.624;10.106;2023-02-01T00:14:19;22.10;;;5.10;;
4921;SDS011;16625;53.624;10.106;2023-02-01T00:16:45;24.93;;;3.73;;
4921;SDS011;16625;53.624;10.106;2023-02-01T00:19:13;16.97;;;4.00;;
4921;SDS011;16625;53.624;10.106;2023-02-01T00:21:41;13.80;;;4.97;;
4921;SDS011;16625;53.624;10.106;2023-02-01T00:24:09;26.60;;;5.33;;
4921;SDS011;16625;53.624;10.106;2023-02-01T00:26:39;18.40;;;4.70;;
4921;SDS011;16625;53.624;10.106;2023-02-01T00:29:09;13.20;;;5.50;;
4921;SDS011;16625;53.624;10.106;2023-02-01T00:31:40;22.90;;;5.27;;
4921;SDS011;16625;53.624;10.106;2023-02-01T00:34:08;16.20;;;4.83;;
4921;SDS011;16625;53.624;10.106;2023-02-01T00:36:37;25.00;;;5.10;;
4921;SDS011;16625;53.624;10.106;2023-02-01T00:39:04;18.90;;;5.60;;
4921;SDS011;16625;53.624;10.106;2023-02-01T00:41:31;25.57;;;4.90;;
4921;SDS011;16625;53.624;10.106;2023-02-01T00:43:59;15.40;;;3.60;;
4921;SDS011;16625;53.624;10.106;2023-02-01T00:46:27;20.63;;;6.43;;
4921;SDS011;16625;53.624;10.106;2023-02-01T00:48:54;22.90;;;5.27;;
4921;SDS011;16625;53.624;10.106;2023-02-01T00:51:22;7.43;;;3.80;;
4921;SDS011;16625;53.624;10.106;2023-02-01T00:53:50;14.37;;;4.17;;
4921;SDS011;16625;53.624;10.106;2023-02-01T00:56:17;23.37;;;5.93;;
4921;SDS011;16625;53.624;10.106;2023-02-01T00:58:44;29.90;;;5.43;;
4921;SDS011;16625;53.624;10.106;2023-02-01T01:01:14;20.63;;;5.33;;
4921;SDS011;16625;53.624;10.106;2023-02-01T01:03:43;21.73;;;4.70;;
4921;SDS011;16625;53.624;10.106;2023-02-01T01:06:12;24.17;;;5.87;;
4921;SDS011;16625;53.624;10.106;2023-02-01T01:08:40;21.73;;;5.00;;
4921;SDS011;16625;53.624;10.106;2023-02-01T01:11:08;30.17;;;6.60;;
4921;SDS011;16625;53.624;10.106;2023-02-01T01:13:36;31.87;;;5.30;;
4921;SDS011;16625;53.624;10.106;2023-02-01T01:16:03;26.10;;;6.20;;
4921;SDS011;16625;53.624;10.106;2023-02-01T01:18:32;18.37;;;4.53;;
4921;SDS011;16625;53.624;10.106;2023-02-01T01:21:00;28.80;;;5.50;;
4921;SDS011;16625;53.624;10.106;2023-02-01T01:23:29;20.10;;;5.60;;
4921;SDS011;16625;53.624;10.106;2023-02-01T01:25:56;32.13;;;6.20;;
4921;SDS011;16625;53.624;10.106;2023-02-01T01:28:23;28.43;;;5.13;;
4921;SDS011;16625;53.624;10.106;2023-02-01T01:30:50;35.63;;;5.90;;
4921;SDS011;16625;53.624;10.106;2023-02-01T01:33:17;26.20;;;5.60;;
4921;SDS011;16625;53.624;10.106;2023-02-01T01:35:45;28.40;;;6.33;;
4921;SDS011;16625;53.624;10.106;2023-02-01T01:38:12;21.83;;;5.23;;
4921;SDS011;16625;53.624;10.106;2023-02-01T01:40:39;24.60;;;5.90;;
4921;SDS011;16625;53.624;10.106;2023-02-01T01:43:10;29.43;;;5.33;;
4921;SDS011;16625;53.624;10.106;2023-02-01T01:45:40;13.90;;;3.90;;
4921;SDS011;16625;53.624;10.106;2023-02-01T01:48:08;16.27;;;4.90;;
4921;SDS011;16625;53.624;10.106;2023-02-01T01:50:40;14.30;;;4.47;;
4921;SDS011;16625;53.624;10.106;2023-02-01T01:53:16;28.67;;;6.37;;
4921;SDS011;16625;53.624;10.106;2023-02-01T01:55:46;28.20;;;7.50;;
4921;SDS011;16625;53.624;10.106;2023-02-01T01:58:16;19.07;;;5.93;;
4921;SDS011;16625;53.624;10.106;2023-02-01T02:00:45;26.60;;;6.70;;
4921;SDS011;16625;53.624;10.106;2023-02-01T02:03:14;29.50;;;5.90;;
4921;SDS011;16625;53.624;10.106;2023-02-01T02:05:44;45.47;;;6.30;;
4921;SDS011;16625;53.624;10.106;2023-02-01T02:08:11;24.87;;;5.73;;
4921;SDS011;16625;53.624;10.106;2023-02-01T02:10:40;46.37;;;5.87;;
4921;SDS011;16625;53.624;10.106;2023-02-01T02:13:24;38.87;;;5.80;;
4921;SDS011;16625;53.624;10.106;2023-02-01T02:15:58;18.93;;;4.90;;
4921;SDS011;16625;53.624;10.106;2023-02-01T02:18:35;23.83;;;6.47;;
4921;SDS011;16625;53.624;10.106;2023-02-01T02:21:12;37.53;;;6.00;;
4921;SDS011;16625;53.624;10.106;2023-02-01T02:26:52;27.07;;;5.80;;
4921;SDS011;16625;53.624;10.106;2023-02-01T02:29:38;35.10;;;5.57;;
4921;SDS011;16625;53.624;10.106;2023-02-01T02:32:39;16.93;;;6.13;;
4921;SDS011;16625;53.624;10.106;2023-02-01T02:35:30;39.67;;;6.50;;
4921;SDS011;16625;53.624;10.106;2023-02-01T02:38:05;22.13;;;5.90;;
4921;SDS011;16625;53.624;10.106;2023-02-01T02:40:42;31.53;;;6.53;;
4921;SDS011;16625;53.624;10.106;2023-02-01T02:43:16;21.23;;;5.97;;
4921;SDS011;16625;53.624;10.106;2023-02-01T02:46:05;25.73;;;5.80;;
4921;SDS011;16625;53.624;10.106;2023-02-01T02:49:00;36.97;;;6.23;;
4921;SDS011;16625;53.624;10.106;2023-02-01T02:51:34;48.33;;;7.53;;
4921;SDS011;16625;53.624;10.106;2023-02-01T02:54:25;29.70;;;4.83;;
4921;SDS011;16625;53.624;10.106;2023-02-01T02:57:12;27.57;;;5.40;;
4921;SDS011;16625;53.624;10.106;2023-02-01T03:00:00;31.47;;;6.00;;
4921;SDS011;16625;53.624;10.106;2023-02-01T03:02:48;21.50;;;5.33;;
4921;SDS011;16625;53.624;10.106;2023-02-01T03:05:33;32.20;;;5.40;;
4921;SDS011;16625;53.624;10.106;2023-02-01T03:08:08;22.37;;;5.60;;
4921;SDS011;16625;53.624;10.106;2023-02-01T03:13:26;18.53;;;5.30;;
4921;SDS011;16625;53.624;10.106;2023-02-01T03:16:02;33.90;;;5.30;;
4921;SDS011;16625;53.624;10.106;2023-02-01T03:18:39;19.17;;;4.50;;
4921;SDS011;16625;53.624;10.106;2023-02-01T03:21:14;23.97;;;5.10;;
4921;SDS011;16625;53.624;10.106;2023-02-01T03:23:54;26.63;;;4.40;;
4921;SDS011;16625;53.624;10.106;2023-02-01T03:26:29;22.93;;;6.50;;
4921;SDS011;16625;53.624;10.106;2023-02-01T03:29:11;16.07;;;4.70;;
4921;SDS011;16625;53.624;10.106;2023-02-01T03:31:43;19.80;;;4.30;;
4921;SDS011;16625;53.624;10.106;2023-02-01T03:34:11;28.97;;;4.30;;
4921;SDS011;16625;53.624;10.106;2023-02-01T03:36:40;10.20;;;3.80;;
4921;SDS011;16625;53.624;10.106;2023-02-01T03:39:14;11.73;;;3.80;;
4921;SDS011;16625;53.624;10.106;2023-02-01T03:41:47;11.63;;;3.23;;
4921;SDS011;16625;53.624;10.106;2023-02-01T03:44:19;20.97;;;4.80;;
4921;SDS011;16625;53.624;10.106;2023-02-01T03:46:50;32.63;;;4.90;;
4921;SDS011;16625;53.624;10.106;2023-02-01T03:49:22;30.97;;;4.13;;
4921;SDS011;16625;53.624;10.106;2023-02-01T03:51:52;18.27;;;3.53;;
4921;SDS011;16625;53.624;10.106;2023-02-01T03:54:22;16.23;;;4.77;;
4921;SDS011;16625;53.624;10.106;2023-02-01T03:56:50;19.63;;;4.07;;
4921;SDS011;16625;53.624;10.106;2023-02-01T03:59:23;21.87;;;4.33;;
4921;SDS011;16625;53.624;10.106;2023-02-01T04:01:50;12.00;;;4.10;;
4921;SDS011;16625;53.624;10.106;2023-02-01T04:04:19;21.60;;;4.10;;
4921;SDS011;16625;53.624;10.106;2023-02-01T04:06:51;16.77;;;4.40;;
4921;SDS011;16625;53.624;10.106;2023-02-01T04:09:23;14.30;;;4.17;;
4921;SDS011;16625;53.624;10.106;2023-02-01T04:11:53;19.17;;;5.73;;
4921;SDS011;16625;53.624;10.106;2023-02-01T04:14:20;23.93;;;3.27;;
4921;SDS011;16625;53.624;10.106;2023-02-01T04:16:47;16.77;;;5.43;;
4921;SDS011;16625;53.624;10.106;2023-02-01T04:19:15;23.13;;;5.57;;
4921;SDS011;16625;53.624;10.106;2023-02-01T04:21:42;19.07;;;4.93;;
4921;SDS011;16625;53.624;10.106;2023-02-01T04:24:09;22.40;;;4.47;;
4921;SDS011;16625;53.624;10.106;2023-02-01T04:26:40;15.30;;;4.37;;
4921;SDS011;16625;53.624;10.106;2023-02-01T04:29:11;24.93;;;5.37;;
4921;SDS011;16625;53.624;10.106;2023-02-01T04:31:38;26.00;;;4.17;;
4921;SDS011;16625;53.624;10.106;2023-02-01T04:34:06;16.60;;;3.57;;
4921;SDS011;16625;53.624;10.106;2023-02-01T04:36:33;50.03;;;6.00;;
4921;SDS011;16625;53.624;10.106;2023-02-01T04:39:00;25.67;;;5.37;;
4921;SDS011;16625;53.624;10.106;2023-02-01T04:41:27;20.90;;;5.03;;
4921;SDS011;16625;53.624;10.106;2023-02-01T04:43:56;28.90;;;5.70;;
4921;SDS011;16625;53.624;10.106;2023-02-01T04:46:23;15.80;;;3.07;;
4921;SDS011;16625;53.624;10.106;2023-02-01T04:48:55;23.77;;;4.53;;
4921;SDS011;16625;53.624;10.106;2023-02-01T04:51:22;4.90;;;2.50;;
4921;SDS011;16625;53.624;10.106;2023-02-01T04:53:49;17.43;;;4.67;;
4921;SDS011;16625;53.624;10.106;2023-02-01T04:56:16;14.83;;;3.10;;
4921;SDS011;16625;53.624;10.106;2023-02-01T04:58:43;6.57;;;2.70;;
4921;SDS011;16625;53.624;10.106;2023-02-01T05:01:11;5.67;;;2.50;;
4921;SDS011;16625;53.624;10.106;2023-02-01T05:03:39;22.60;;;3.47;;
4921;SDS011;16625;53.624;10.106;2023-02-01T05:06:06;10.03;;;3.47;;
4921;SDS011;16625;53.624;10.106;2023-02-01T05:08:32;9.77;;;3.57;;
4921;SDS011;16625;53.624;10.106;2023-02-01T05:10:59;15.37;;;3.40;;
4921;SDS011;16625;53.624;10.106;2023-02-01T05:13:28;8.37;;;2.83;;
4921;SDS011;16625;53.624;10.106;2023-02-01T05:16:14;7.90;;;3.77;;
4921;SDS011;16625;53.624;10.106;2023-02-01T05:18:41;9.60;;;3.27;;
4921;SDS011;16625;53.624;10.106;2023-02-01T05:21:08;11.40;;;2.93;;
4921;SDS011;16625;53.624;10.106;2023-02-01T05:23:41;18.57;;;3.83;;
4921;SDS011;16625;53.624;10.106;2023-02-01T05:26:25;8.13;;;2.23;;
4921;SDS011;16625;53.624;10.106;2023-02-01T05:28:53;8.23;;;2.00;;
4921;SDS011;16625;53.624;10.106;2023-02-01T05:31:21;4.90;;;2.27;;
4921;SDS011;16625;53.624;10.106;2023-02-01T05:33:49;2.30;;;1.57;;
4921;SDS011;16625;53.624;10.106;2023-02-01T05:36:16;5.20;;;1.60;;
4921;SDS011;16625;53.624;10.106;2023-02-01T05:38:43;5.27;;;2.33;;
4921;SDS011;16625;53.624;10.106;2023-02-01T05:41:10;3.43;;;2.30;;
4921;SDS011;16625;53.624;10.106;2023-02-01T05:43:39;5.20;;;2.03;;
4921;SDS011;16625;53.624;10.106;2023-02-01T05:46:06;2.30;;;2.10;;
4921;SDS011;16625;53.624;10.106;2023-02-01T05:48:38;4.80;;;2.30;;
4921;SDS011;16625;53.624;10.106;2023-02-01T05:51:06;1.73;;;1.50;;
4921;SDS011;16625;53.624;10.106;2023-02-01T05:53:33;3.83;;;2.23;;
4921;SDS011;16625;53.624;10.106;2023-02-01T05:56:00;5.60;;;1.73;;
4921;SDS011;16625;53.624;10.106;2023-02-01T05:58:28;2.13;;;1.93;;
4921;SDS011;16625;53.624;10.106;2023-02-01T06:00:56;2.67;;;2.03;;
4921;SDS011;16625;53.624;10.106;2023-02-01T06:03:25;5.97;;;1.90;;
4921;SDS011;16625;53.624;10.106;2023-02-01T06:06:04;3.10;;;2.23;;
4921;SDS011;16625;53.624;10.106;2023-02-01T06:08:31;3.10;;;2.10;;
4921;SDS011;16625;53.624;10.106;2023-02-01T06:10:58;3.50;;;1.60;;
4921;SDS011;16625;53.624;10.106;2023-02-01T06:13:25;3.50;;;1.90;;
4921;SDS011;16625;53.624;10.106;2023-02-01T06:15:52;1.73;;;1.60;;
4921;SDS011;16625;53.624;10.106;2023-02-01T06:18:20;3.80;;;1.80;;
4921;SDS011;16625;53.624;10.106;2023-02-01T06:20:51;2.47;;;1.60;;
4921;SDS011;16625;53.624;10.106;2023-02-01T06:23:26;2.07;;;1.80;;
4921;SDS011;16625;53.624;10.106;2023-02-01T06:26:02;7.33;;;2.57;;
4921;SDS011;16625;53.624;10.106;2023-02-01T06:28:30;3.63;;;2.33;;
4921;SDS011;16625;53.624;10.106;2023-02-01T06:30:58;6.10;;;2.30;;
4921;SDS011;16625;53.624;10.106;2023-02-01T06:33:31;3.80;;;2.30;;
4921;SDS011;16625;53.624;10.106;2023-02-01T06:35:58;2.57;;;2.20;;
4921;SDS011;16625;53.624;10.106;2023-02-01T06:38:28;9.60;;;2.47;;
4921;SDS011;16625;53.624;10.106;2023-02-01T06:40:55;14.73;;;2.10;;
4921;SDS011;16625;53.624;10.106;2023-02-01T06:43:23;11.67;;;2.50;;
4921;SDS011;16625;53.624;10.106;2023-02-01T06:45:53;2.53;;;2.10;;
4921;SDS011;16625;53.624;10.106;2023-02-01T06:48:28;15.37;;;2.63;;
4921;SDS011;16625;53.624;10.106;2023-02-01T06:50:55;5.40;;;2.53;;
4921;SDS011;16625;53.624;10.106;2023-02-01T06:53:22;13.97;;;2.60;;
4921;SDS011;16625;53.624;10.106;2023-02-01T06:55:53;6.10;;;2.33;;
4921;SDS011;16625;53.624;10.106;2023-02-01T06:58:20;11.60;;;2.93;;
4921;SDS011;16625;53.624;10.106;2023-02-01T07:00:48;6.53;;;2.63;;
4921;SDS011;16625;53.624;10.106;2023-02-01T07:03:15;13.87;;;3.30;;
4921;SDS011;16625;53.624;10.106;2023-02-01T07:05:42;13.30;;;2.63;;
4921;SDS011;16625;53.624;10.106;2023-02-01T07:08:09;15.30;;;3.67;;
4921;SDS011;16625;53.624;10.106;2023-02-01T07:10:36;11.87;;;3.07;;
4921;SDS011;16625;53.624;10.106;2023-02-01T07:13:05;14.23;;;3.60;;
4921;SDS011;16625;53.624;10.106;2023-02-01T07:15:32;11.03;;;2.97;;
4921;SDS011;16625;53.624;10.106;2023-02-01T07:17:59;18.60;;;3.93;;
4921;SDS011;16625;53.624;10.106;2023-02-01T07:20:26;19.47;;;2.90;;
4921;SDS011;16625;53.624;10.106;2023-02-01T07:22:54;11.20;;;2.60;;
4921;SDS011;16625;53.624;10.106;2023-02-01T07:25:22;33.13;;;5.00;;
4921;SDS011;16625;53.624;10.106;2023-02-01T07:27:49;19.23;;;5.63;;
4921;SDS011;16625;53.624;10.106;2023-02-01T07:30:17;16.57;;;3.00;;
4921;SDS011;16625;53.624;10.106;2023-02-01T07:32:44;29.53;;;4.40;;
4921;SDS011;16625;53.624;10.106;2023-02-01T07:35:11;9.30;;;3.00;;
4921;SDS011;16625;53.624;10.106;2023-02-01T07:37:39;15.97;;;4.20;;
4921;SDS011;16625;53.624;10.106;2023-02-01T07:40:06;17.23;;;4.40;;
4921;SDS011;16625;53.624;10.106;2023-02-01T07:42:34;31.07;;;5.33;;
4921;SDS011;16625;53.624;10.106;2023-02-01T07:45:01;20.93;;;4.93;;
4921;SDS011;16625;53.624;10.106;2023-02-01T07:47:30;16.90;;;3.80;;
4921;SDS011;16625;53.624;10.106;2023-02-01T07:49:56;22.27;;;4.30;;
4921;SDS011;16625;53.624;10.106;2023-02-01T07:52:23;9.03;;;3.30;;
4921;SDS011;16625;53.624;10.106;2023-02-01T07:54:50;19.63;;;3.57;;
4921;SDS011;16625;53.624;10.106;2023-02-01T07:57:17;12.53;;;3.00;;
4921;SDS011;16625;53.624;10.106;2023-02-01T07:59:45;23.10;;;5.03;;
4921;SDS011;16625;53.624;10.106;2023-02-01T08:02:26;52.53;;;7.33;;
4921;SDS011;16625;53.624;10.106;2023-02-01T08:04:54;32.80;;;4.40;;
4921;SDS011;16625;53.624;10.106;2023-02-01T08:07:21;23.50;;;4.57;;
4921;SDS011;16625;53.624;10.106;2023-02-01T08:09:48;36.57;;;5.63;;
4921;SDS011;16625;53.624;10.106;2023-02-01T08:12:14;28.47;;;6.10;;
4921;SDS011;16625;53.624;10.106;2023-02-01T08:14:41;34.57;;;5.00;;
4921;SDS011;16625;53.624;10.106;2023-02-01T08:17:08;28.53;;;4.87;;
4921;SDS011;16625;53.624;10.106;2023-02-01T08:19:35;23.63;;;5.33;;
4921;SDS011;16625;53.624;10.106;2023-02-01T08:22:03;13.80;;;4.77;;
4921;SDS011;16625;53.624;10.106;2023-02-01T08:24:31;40.10;;;6.97;;
4921;SDS011;16625;53.624;10.106;2023-02-01T08:27:00;38.13;;;6.00;;
4921;SDS011;16625;53.624;10.106;2023-02-01T08:29:27;24.10;;;6.97;;
4921;SDS011;16625;53.624;10.106;2023-02-01T08:31:54;28.47;;;6.97;;
4921;SDS011;16625;53.624;10.106;2023-02-01T08:34:21;47.90;;;7.57;;
4921;SDS011;16625;53.624;10.106;2023-02-01T08:36:48;25.13;;;4.53;;
4921;SDS011;16625;53.624;10.106;2023-02-01T08:39:18;27.53;;;6.60;;
4921;SDS011;16625;53.624;10.106;2023-02-01T08:41:45;27.07;;;6.30;;
4921;SDS011;16625;53.624;10.106;2023-02-01T08:44:33;37.53;;;6.53;;
4921;SDS011;16625;53.624;10.106;2023-02-01T08:47:00;17.57;;;4.10;;
4921;SDS011;16625;53.624;10.106;2023-02-01T08:49:27;14.23;;;2.57;;
4921;SDS011;16625;53.624;10.106;2023-02-01T08:51:53;27.53;;;5.73;;
4921;SDS011;16625;53.624;10.106;2023-02-01T08:54:22;21.40;;;4.27;;
4921;SDS011;16625;53.624;10.106;2023-02-01T08:56:49;10.87;;;3.50;;
4921;SDS011;16625;53.624;10.106;2023-02-01T08:59:16;13.80;;;5.33;;
4921;SDS011;16625;53.624;10.106;2023-02-01T09:01:43;15.03;;;3.57;;
4921;SDS011;16625;53.624;10.106;2023-02-01T09:04:09;6.70;;;2.43;;
4921;SDS011;16625;53.624;10.106;2023-02-01T09:06:36;22.40;;;3.90;;
4921;SDS011;16625;53.624;10.106;2023-02-01T09:09:06;17.13;;;3.53;;
4921;SDS011;16625;53.624;10.106;2023-02-01T09:11:34;9.80;;;2.77;;
4921;SDS011;16625;53.624;10.106;2023-02-01T09:14:01;20.20;;;4.20;;
4921;SDS011;16625;53.624;10.106;2023-02-01T09:16:28;35.67;;;5.70;;
4921;SDS011;16625;53.624;10.106;2023-02-01T09:18:55;13.00;;;3.93;;
4921;SDS011;16625;53.624;10.106;2023-02-01T09:21:22;22.57;;;5.73;;
4921;SDS011;16625;53.624;10.106;2023-02-01T09:23:50;24.03;;;5.83;;
4921;SDS011;16625;53.624;10.106;2023-02-01T09:26:17;22.73;;;4.93;;
4921;SDS011;16625;53.624;10.106;2023-02-01T09:28:45;18.37;;;3.80;;
4921;SDS011;16625;53.624;10.106;2023-02-01T09:31:12;28.33;;;5.87;;
4921;SDS011;16625;53.624;10.106;2023-02-01T09:33:39;21.53;;;5.20;;
4921;SDS011;16625;53.624;10.106;2023-02-01T09:36:06;23.73;;;4.77;;
4921;SDS011;16625;53.624;10.106;2023-02-01T09:38:33;17.43;;;4.00;;
4921;SDS011;16625;53.624;10.106;2023-02-01T09:41:00;23.40;;;4.97;;
4921;SDS011;16625;53.624;10.106;2023-02-01T09:43:29;33.80;;;6.40;;
4921;SDS011;16625;53.624;10.106;2023-02-01T09:46:10;9.17;;;2.90;;
4921;SDS011;16625;53.624;10.106;2023-02-01T09:48:46;16.10;;;3.80;;
4921;SDS011;16625;53.624;10.106;2023-02-01T09:51:15;15.97;;;4.20;;
4921;SDS011;16625;53.624;10.106;2023-02-01T09:53:46;17.40;;;4.03;;
4921;SDS011;16625;53.624;10.106;2023-02-01T09:56:23;29.53;;;5.63;;
4921;SDS011;16625;53.624;10.106;2023-02-01T09:58:55;10.97;;;3.83;;
4921;SDS011;16625;53.624;10.106;2023-02-01T10:01:29;12.20;;;4.27;;
4921;SDS011;16625;53.624;10.106;2023-02-01T10:03:58;11.60;;;3.53;;
4921;SDS011;16625;53.624;10.106;2023-02-01T10:06:33;22.07;;;3.73;;
4921;SDS011;16625;53.624;10.106;2023-02-01T10:09:11;31.93;;;5.40;;
4921;SDS011;16625;53.624;10.106;2023-02-01T10:11:51;33.83;;;4.67;;
4921;SDS011;16625;53.624;10.106;2023-02-01T10:14:40;27.57;;;4.77;;
4921;SDS011;16625;53.624;10.106;2023-02-01T10:17:20;23.40;;;3.43;;
4921;SDS011;16625;53.624;10.106;2023-02-01T10:19:57;17.17;;;5.07;;
4921;SDS011;16625;53.624;10.106;2023-02-01T10:22:38;26.23;;;4.27;;
4921;SDS011;16625;53.624;10.106;2023-02-01T10:25:08;15.63;;;3.67;;
4921;SDS011;16625;53.624;10.106;2023-02-01T10:27:42;33.70;;;5.83;;
4921;SDS011;16625;53.624;10.106;2023-02-01T10:30:16;14.30;;;3.40;;
4921;SDS011;16625;53.624;10.106;2023-02-01T10:32:48;29.03;;;4.63;;
4921;SDS011;16625;53.624;10.106;2023-02-01T10:35:22;12.30;;;4.33;;
4921;SDS011;16625;53.624;10.106;2023-02-01T10:37:53;4.47;;;2.20;;
4921;SDS011;16625;53.624;10.106;2023-02-01T10:40:21;19.23;;;4.13;;
4921;SDS011;16625;53.624;10.106;2023-02-01T10:42:51;24.37;;;4.83;;
4921;SDS011;16625;53.624;10.106;2023-02-01T10:45:20;21.23;;;5.27;;
4921;SDS011;16625;53.624;10.106;2023-02-01T10:47:51;14.60;;;5.40;;
4921;SDS011;16625;53.624;10.106;2023-02-01T10:50:23;44.17;;;6.57;;
4921;SDS011;16625;53.624;10.106;2023-02-01T10:53:00;24.13;;;5.53;;
4921;SDS011;16625;53.624;10.106;2023-02-01T10:55:33;20.63;;;5.43;;
4921;SDS011;16625;53.624;10.106;2023-02-01T10:58:04;11.10;;;3.50;;
4921;SDS011;16625;53.624;10.106;2023-02-01T11:00:41;12.40;;;3.63;;
4921;SDS011;16625;53.624;10.106;2023-02-01T11:03:32;26.03;;;3.80;;
4921;SDS011;16625;53.624;10.106;2023-02-01T11:06:09;8.20;;;3.30;;
4921;SDS011;16625;53.624;10.106;2023-02-01T11:08:45;29.07;;;4.87;;
4921;SDS011;16625;53.624;10.106;2023-02-01T11:11:14;19.77;;;4.57;;
4921;SDS011;16625;53.624;10.106;2023-02-01T11:13:42;11.77;;;3.70;;
4921;SDS011;16625;53.624;10.106;2023-02-01T11:16:11;10.87;;;2.40;;
4921;SDS011;16625;53.624;10.106;2023-02-01T11:18:42;21.03;;;3.30;;
4921;SDS011;16625;53.624;10.106;2023-02-01T11:21:09;10.10;;;3.50;;
4921;SDS011;16625;53.624;10.106;2023-02-01T11:23:41;18.60;;;6.13;;
4921;SDS011;16625;53.624;10.106;2023-02-01T11:26:11;28.33;;;4.17;;
4921;SDS011;16625;53.624;10.106;2023-02-01T11:28:40;10.50;;;4.00;;
4921;SDS011;16625;53.624;10.106;2023-02-01T11:31:14;6.17;;;3.00;;
4921;SDS011;16625;53.624;10.106;2023-02-01T11:33:45;13.90;;;4.10;;
4921;SDS011;16625;53.624;10.106;2023-02-01T11:36:17;15.37;;;2.90;;
4921;SDS011;16625;53.624;10.106;2023-02-01T11:38:50;20.17;;;3.33;;
4921;SDS011;16625;53.624;10.106;2023-02-01T11:41:23;11.00;;;4.00;;
4921;SDS011;16625;53.624;10.106;2023-02-01T11:43:52;16.60;;;3.47;;
4921;SDS011;16625;53.624;10.106;2023-02-01T11:46:22;8.30;;;3.50;;
4921;SDS011;16625;53.624;10.106;2023-02-01T11:48:55;14.50;;;4.03;;
4921;SDS011;16625;53.624;10.106;2023-02-01T11:51:28;15.77;;;4.40;;
4921;SDS011;16625;53.624;10.106;2023-02-01T11:54:11;38.07;;;4.97;;
4921;SDS011;16625;53.624;10.106;2023-02-01T11:56:47;18.90;;;5.73;;
4921;SDS011;16625;53.624;10.106;2023-02-01T11:59:28;14.80;;;4.10;;
4921;SDS011;16625;53.624;10.106;2023-02-01T12:02:18;13.47;;;3.10;;
4921;SDS011;16625;53.624;10.106;2023-02-01T12:07:54;19.97;;;3.90;;
4921;SDS011;16625;53.624;10.106;2023-02-01T12:10:35;13.20;;;4.00;;
4921;SDS011;16625;53.624;10.106;2023-02-01T12:13:14;18.47;;;3.93;;
4921;SDS011;16625;53.624;10.106;2023-02-01T12:15:53;16.43;;;3.77;;
4921;SDS011;16625;53.624;10.106;2023-02-01T12:24:33;16.73;;;4.03;;
4921;SDS011;16625;53.624;10.106;2023-02-01T12:27:16;11.00;;;3.00;;
4921;SDS011;16625;53.624;10.106;2023-02-01T12:30:10;7.33;;;3.20;;
4921;SDS011;16625;53.624;10.106;2023-02-01T12:32:53;18.70;;;3.70;;
4921;SDS011;16625;53.624;10.106;2023-02-01T12:35:38;11.73;;;2.80;;
4921;SDS011;16625;53.624;10.106;2023-02-01T12:38:20;10.70;;;3.73;;
4921;SDS011;16625;53.624;10.106;2023-02-01T12:41:03;7.27;;;2.67;;
4921;SDS011;16625;53.624;10.106;2023-02-01T12:43:38;2.23;;;1.60;;
4921;SDS011;16625;53.624;10.106;2023-02-01T12:46:11;9.43;;;1.53;;
4921;SDS011;16625;53.624;10.106;2023-02-01T12:48:45;5.13;;;2.50;;
4921;SDS011;16625;53.624;10.106;2023-02-01T12:51:20;4.80;;;2.03;;
4921;SDS011;16625;53.624;10.106;2023-02-01T12:53:53;1.90;;;1.70;;
4921;SDS011;16625;53.624;10.106;2023-02-01T12:56:22;1.70;;;1.60;;
4921;SDS011;16625;53.624;10.106;2023-02-01T12:58:53;5.13;;;1.60;;
4921;SDS011;16625;53.624;10.106;2023-02-01T13:01:26;3.33;;;1.60;;
4921;SDS011;16625;53.624;10.106;2023-02-01T13:03:59;5.27;;;1.97;;
4921;SDS011;16625;53.624;10.106;2023-02-01T13:06:35;7.17;;;2.17;;
4921;SDS011;16625;53.624;10.106;2023-02-01T13:09:09;2.67;;;1.93;;
4921;SDS011;16625;53.624;10.106;2023-02-01T13:11:45;2.60;;;2.03;;
4921;SDS011;16625;53.624;10.106;2023-02-01T13:14:16;3.97;;;1.90;;
4921;SDS011;16625;53.624;10.106;2023-02-01T13:16:51;3.00;;;1.90;;
4921;SDS011;16625;53.624;10.106;2023-02-01T13:19:31;2.50;;;1.83;;
4921;SDS011;16625;53.624;10.106;2023-02-01T13:22:10;3.40;;;1.73;;
4921;SDS011;16625;53.624;10.106;2023-02-01T13:24:40;2.93;;;1.80;;
4921;SDS011;16625;53.624;10.106;2023-02-01T13:27:11;3.97;;;1.60;;
4921;SDS011;16625;53.624;10.106;2023-02-01T13:29:40;4.07;;;1.77;;
4921;SDS011;16625;53.624;10.106;2023-02-01T13:32:19;3.53;;;1.83;;
4921;SDS011;16625;53.624;10.106;2023-02-01T13:35:20;3.77;;;1.77;;
4921;SDS011;16625;53.624;10.106;2023-02-01T13:41:11;3.90;;;1.70;;
4921;SDS011;16625;53.624;10.106;2023-02-01T13:43:52;3.60;;;1.53;;
4921;SDS011;16625;53.624;10.106;2023-02-01T13:46:21;2.83;;;1.80;;
4921;SDS011;16625;53.624;10.106;2023-02-01T13:48:49;2.97;;;1.70;;
4921;SDS011;16625;53.624;10.106;2023-02-01T13:51:18;2.27;;;1.60;;
4921;SDS011;16625;53.624;10.106;2023-02-01T13:53:59;4.30;;;2.03;;
4921;SDS011;16625;53.624;10.106;2023-02-01T13:56:27;3.40;;;2.07;;
4921;SDS011;16625;53.624;10.106;2023-02-01T13:58:54;4.93;;;2.27;;
4921;SDS011;16625;53.624;10.106;2023-02-01T14:01:32;2.20;;;2.00;;
4921;SDS011;16625;53.624;10.106;2023-02-01T14:04:02;2.70;;;1.73;;
4921;SDS011;16625;53.624;10.106;2023-02-01T14:06:49;6.80;;;2.03;;
4921;SDS011;16625;53.624;10.106;2023-02-01T14:09:30;4.43;;;2.27;;
4921;SDS011;16625;53.624;10.106;2023-02-01T14:25:20;10.13;;;2.60;;
4921;SDS011;16625;53.624;10.106;2023-02-01T14:27:47;2.80;;;2.07;;
4921;SDS011;16625;53.624;10.106;2023-02-01T14:30:15;4.53;;;3.17;;
4921;SDS011;16625;53.624;10.106;2023-02-01T14:32:43;7.07;;;3.20;;
4921;SDS011;16625;53.624;10.106;2023-02-01T14:35:17;4.20;;;2.20;;
4921;SDS011;16625;53.624;10.106;2023-02-01T14:37:46;11.33;;;2.80;;
4921;SDS011;16625;53.624;10.106;2023-02-01T14:40:19;6.60;;;2.20;;
4921;SDS011;16625;53.624;10.106;2023-02-01T14:42:51;4.70;;;2.57;;
4921;SDS011;16625;53.624;10.106;2023-02-01T14:51:13;10.50;;;3.43;;
4921;SDS011;16625;53.624;10.106;2023-02-01T14:53:42;5.50;;;2.57;;
4921;SDS011;16625;53.624;10.106;2023-02-01T14:56:13;4.17;;;2.40;;
4921;SDS011;16625;53.624;10.106;2023-02-01T14:58:47;4.13;;;2.43;;
4921;SDS011;16625;53.624;10.106;2023-02-01T15:01:20;12.20;;;4.30;;
4921;SDS011;16625;53.624;10.106;2023-02-01T15:03:53;7.93;;;2.80;;
4921;SDS011;16625;53.624;10.106;2023-02-01T15:06:26;8.00;;;2.60;;
4921;SDS011;16625;53.624;10.106;2023-02-01T15:09:00;8.53;;;2.63;;
4921;SDS011;16625;53.624;10.106;2023-02-01T15:11:33;6.23;;;2.40;;
4921;SDS011;16625;53.624;10.106;2023-02-01T15:14:21;5.07;;;2.70;;
4921;SDS011;16625;53.624;10.106;2023-02-01T15:16:48;13.67;;;2.77;;
4921;SDS011;16625;53.624;10.106;2023-02-01T15:19:19;7.70;;;2.50;;
4921;SDS011;16625;53.624;10.106;2023-02-01T15:21:48;5.70;;;2.50;;
4921;SDS011;16625;53.624;10.106;2023-02-01T15:24:20;9.67;;;3.53;;
4921;SDS011;16625;53.624;10.106;2023-02-01T15:26:50;10.17;;;4.30;;
4921;SDS011;16625;53.624;10.106;2023-02-01T15:29:18;6.37;;;2.87;;
4921;SDS011;16625;53.624;10.106;2023-02-01T15:31:47;11.77;;;3.60;;
4921;SDS011;16625;53.624;10.106;2023-02-01T15:34:16;9.40;;;3.20;;
4921;SDS011;16625;53.624;10.106;2023-02-01T15:36:45;19.40;;;3.50;;
4921;SDS011;16625;53.624;10.106;2023-02-01T15:39:17;21.00;;;4.90;;
4921;SDS011;16625;53.624;10.106;2023-02-01T15:41:49;11.33;;;4.80;;